Time;durP1;ratioP1;P1;durP2;ratioP2;P2;SDS_P1;SDS_P2;PMS_P1;PMS_P2;Temp;Humidity;BMP_temperature;BMP_pressure;BME280_temperature;BME280_humidity;BME280_pressure;Samples;Min_cycle;Max_cycle;Signal;HPM_P1;HPM_P2
2021/06/22 00:01:39;;;;;;;11.35;5.45;;;13.40;99.90;;;;;;5075549;28;20021;-68
2021/06/22 00:04:04;;;;;;;10.23;5.63;;;13.40;99.90;;;;;;5073662;28;20031;-68
2021/06/22 00:06:30;;;;;;;11.00;5.32;;;13.40;99.90;;;;;;5075119;28;20377;-68
2021/06/22 00:08:55;;;;;;;9.05;5.38;;;13.40;99.90;;;;;;5090774;28;20484;-68
2021/06/22 00:11:21;;;;;;;10.13;5.50;;;13.40;99.90;;;;;;5075302;28;20032;-68
2021/06/22 00:13:46;;;;;;;12.70;5.53;;;13.40;99.90;;;;;;5075229;28;20411;-68
2021/06/22 00:16:12;;;;;;;9.38;5.97;;;13.30;99.90;;;;;;5075242;28;20031;-68
2021/06/22 00:18:38;;;;;;;14.50;6.72;;;13.30;99.90;;;;;;5090488;28;20021;-68
2021/06/22 00:21:03;;;;;;;17.50;7.30;;;13.30;99.90;;;;;;5072511;28;20366;-68
2021/06/22 00:23:29;;;;;;;13.10;7.72;;;13.20;99.90;;;;;;5075086;28;20405;-68
2021/06/22 00:25:56;;;;;;;14.30;7.80;;;13.10;99.90;;;;;;5075024;28;20029;-68
2021/06/22 00:28:21;;;;;;;15.90;8.88;;;13.10;99.90;;;;;;5074972;28;20046;-68
2021/06/22 00:30:47;;;;;;;19.88;9.35;;;13.10;99.90;;;;;;5074894;28;20036;-68
2021/06/22 00:33:12;;;;;;;19.73;9.60;;;13.10;99.90;;;;;;5074620;28;20025;-68
2021/06/22 00:35:38;;;;;;;19.85;9.13;;;13.00;99.90;;;;;;5074802;28;20469;-67
2021/06/22 00:38:04;;;;;;;15.10;9.63;;;13.00;99.90;;;;;;5074094;28;20049;-68
2021/06/22 00:40:29;;;;;;;20.58;9.63;;;12.90;99.90;;;;;;5074177;28;20037;-66
2021/06/22 00:42:55;;;;;;;16.83;8.95;;;12.90;99.90;;;;;;5090156;28;20028;-67
2021/06/22 00:45:29;;;;;;;16.73;9.30;;;12.90;99.90;;;;;;5090351;28;20031;-66
2021/06/22 00:47:56;;;;;;;16.73;9.50;;;12.90;99.90;;;;;;5074600;28;20035;-66
2021/06/22 00:50:21;;;;;;;18.45;9.25;;;12.80;99.90;;;;;;5072804;28;20103;-67
2021/06/22 00:52:47;;;;;;;25.23;9.10;;;12.90;99.90;;;;;;5089936;28;20442;-66
2021/06/22 00:55:13;;;;;;;21.83;9.98;;;12.90;99.90;;;;;;5074486;28;20043;-68
2021/06/22 00:57:39;;;;;;;15.57;9.20;;;12.90;99.90;;;;;;5074334;28;20078;-68
2021/06/22 01:00:08;;;;;;;17.67;9.43;;;12.90;99.90;;;;;;5074398;28;20060;-66
2021/06/22 01:02:34;;;;;;;21.73;8.85;;;13.00;99.90;;;;;;5074360;28;20024;-68
2021/06/22 01:04:59;;;;;;;20.48;8.40;;;13.00;99.90;;;;;;5074334;28;20029;-67
2021/06/22 01:07:25;;;;;;;21.77;9.10;;;13.00;99.90;;;;;;5074317;28;20521;-68
2021/06/22 01:09:51;;;;;;;24.00;8.80;;;13.00;99.90;;;;;;5074259;28;20028;-68
2021/06/22 01:12:16;;;;;;;18.00;9.57;;;13.00;99.90;;;;;;5089635;28;20115;-68
2021/06/22 01:14:43;;;;;;;17.40;9.02;;;13.00;99.90;;;;;;5074218;28;20073;-68
2021/06/22 01:17:08;;;;;;;22.95;9.98;;;13.00;99.90;;;;;;5074091;28;20023;-68
2021/06/22 01:19:35;;;;;;;19.63;9.57;;;12.90;99.90;;;;;;5073631;28;20016;-68
2021/06/22 01:22:00;;;;;;;24.40;9.38;;;12.90;99.90;;;;;;5074156;28;20474;-67
2021/06/22 01:24:26;;;;;;;23.05;8.82;;;12.90;99.90;;;;;;5074095;28;20020;-68
2021/06/22 01:26:55;;;;;;;18.50;9.43;;;12.90;99.90;;;;;;5074080;28;20074;-68
2021/06/22 01:29:21;;;;;;;18.23;9.45;;;12.90;99.90;;;;;;5073798;28;20115;-67
2021/06/22 01:31:47;;;;;;;20.40;9.55;;;13.00;99.90;;;;;;5089398;28;20024;-68
2021/06/22 01:34:13;;;;;;;22.10;9.70;;;13.00;99.90;;;;;;5073860;28;20063;-68
2021/06/22 01:36:40;;;;;;;26.38;10.10;;;13.00;99.90;;;;;;5073414;28;20052;-68
2021/06/22 01:39:11;;;;;;;22.35;9.93;;;12.90;99.90;;;;;;5073676;28;20066;-68
2021/06/22 01:41:37;;;;;;;22.00;9.13;;;12.90;99.90;;;;;;5073918;28;20016;-68
2021/06/22 01:44:03;;;;;;;23.35;9.57;;;12.90;99.90;;;;;;5073385;28;20032;-67
2021/06/22 01:46:28;;;;;;;21.67;8.55;;;13.00;99.90;;;;;;5073350;28;20082;-68
2021/06/22 01:48:54;;;;;;;31.85;10.18;;;13.00;99.90;;;;;;5073875;28;20033;-68
2021/06/22 01:51:20;;;;;;;23.35;10.23;;;13.10;99.90;;;;;;5073591;28;20029;-68
2021/06/22 01:53:58;;;;;;;23.50;9.82;;;13.00;99.90;;;;;;5073842;28;20094;-68
2021/06/22 01:56:26;;;;;;;27.40;9.63;;;13.00;99.90;;;;;;5073805;28;20021;-68
2021/06/22 01:58:52;;;;;;;25.88;9.80;;;12.90;99.90;;;;;;5073759;28;20033;-68
2021/06/22 02:01:18;;;;;;;23.60;9.95;;;12.90;99.90;;;;;;5088895;28;20021;-68
2021/06/22 02:03:43;;;;;;;21.27;8.73;;;12.90;99.90;;;;;;5073183;28;20499;-67
2021/06/22 02:06:10;;;;;;;19.17;9.63;;;13.00;99.90;;;;;;5088777;28;20021;-68
2021/06/22 02:08:36;;;;;;;20.98;8.93;;;13.00;99.90;;;;;;5073707;28;20028;-67
2021/06/22 02:11:02;;;;;;;22.70;9.15;;;12.90;99.90;;;;;;5073640;28;20020;-68
2021/06/22 02:13:28;;;;;;;24.98;9.63;;;13.00;99.90;;;;;;5073622;28;20074;-68
2021/06/22 02:15:55;;;;;;;19.42;9.07;;;13.00;99.90;;;;;;5088834;28;20024;-68
2021/06/22 02:18:20;;;;;;;18.95;9.82;;;13.00;99.90;;;;;;5072981;28;20025;-68
2021/06/22 02:20:46;;;;;;;27.42;9.02;;;13.00;99.90;;;;;;5073562;28;20118;-68
2021/06/22 02:23:12;;;;;;;21.83;10.05;;;12.90;99.90;;;;;;5072992;28;20039;-66
2021/06/22 02:25:38;;;;;;;19.67;9.43;;;12.90;99.90;;;;;;5072316;28;20028;-66
2021/06/22 02:28:13;;;;;;;25.48;9.38;;;13.00;99.90;;;;;;5073478;28;20463;-67
2021/06/22 02:30:40;;;;;;;24.58;9.32;;;12.90;99.90;;;;;;5073175;28;20066;-68
2021/06/22 02:33:06;;;;;;;20.42;9.10;;;12.90;99.90;;;;;;5073451;28;20066;-68
2021/06/22 02:35:33;;;;;;;21.63;9.35;;;12.90;99.90;;;;;;5073410;28;20154;-68
2021/06/22 02:37:59;;;;;;;23.55;9.07;;;12.90;99.90;;;;;;5072837;28;20044;-68
2021/06/22 02:40:25;;;;;;;21.55;9.38;;;13.00;99.90;;;;;;5073366;28;20044;-68
2021/06/22 02:42:51;;;;;;;26.50;9.85;;;12.90;99.90;;;;;;5088374;28;20039;-68
2021/06/22 02:45:17;;;;;;;26.65;9.23;;;12.90;99.90;;;;;;5073381;28;20048;-67
2021/06/22 02:47:44;;;;;;;23.80;9.60;;;13.00;99.90;;;;;;5076673;28;20060;-67
2021/06/22 02:50:10;;;;;;;22.70;8.93;;;13.00;99.90;;;;;;5092368;28;20454;-67
2021/06/22 02:52:36;;;;;;;21.50;9.85;;;13.00;99.90;;;;;;5076549;28;20032;-67
2021/06/22 02:55:02;;;;;;;23.02;9.55;;;13.00;99.90;;;;;;5076776;28;20112;-67
2021/06/22 02:57:27;;;;;;;23.08;10.07;;;13.00;99.90;;;;;;5076362;28;20485;-67
2021/06/22 02:59:53;;;;;;;22.17;9.98;;;13.00;99.90;;;;;;5075271;28;20048;-67
2021/06/22 03:02:18;;;;;;;24.15;9.80;;;13.00;99.90;;;;;;5076388;28;20012;-67
2021/06/22 03:04:44;;;;;;;25.05;10.00;;;12.90;99.90;;;;;;5076617;28;20025;-67
2021/06/22 03:07:10;;;;;;;25.33;10.65;;;12.90;99.90;;;;;;5076028;28;20024;-67
2021/06/22 03:09:35;;;;;;;24.85;9.27;;;12.90;99.90;;;;;;5076523;28;20032;-67
2021/06/22 03:12:01;;;;;;;19.08;10.18;;;12.90;99.90;;;;;;5075944;28;20032;-67
2021/06/22 03:14:26;;;;;;;18.02;9.75;;;13.00;99.90;;;;;;5076160;28;20016;-67
2021/06/22 03:16:52;;;;;;;26.98;10.43;;;12.90;99.90;;;;;;5091468;28;20028;-67
2021/06/22 03:19:19;;;;;;;25.13;10.02;;;12.90;99.90;;;;;;5074886;28;20025;-67
2021/06/22 03:21:46;;;;;;;24.90;11.38;;;12.90;99.90;;;;;;5076325;28;20021;-67
2021/06/22 03:24:13;;;;;;;20.98;11.10;;;12.90;99.90;;;;;;5075796;28;20013;-67
2021/06/22 03:26:38;;;;;;;26.95;11.10;;;12.80;99.90;;;;;;5075872;28;20021;-67
2021/06/22 03:29:04;;;;;;;24.88;11.32;;;12.80;99.90;;;;;;5075884;28;20024;-67
2021/06/22 03:31:31;;;;;;;24.83;10.73;;;12.90;99.90;;;;;;5075875;28;20095;-67
2021/06/22 03:33:56;;;;;;;19.30;10.05;;;12.90;99.90;;;;;;5075832;28;20021;-67
2021/06/22 03:36:22;;;;;;;20.92;11.13;;;12.80;99.90;;;;;;5075821;28;20142;-67
2021/06/22 03:38:48;;;;;;;22.27;11.48;;;12.80;99.90;;;;;;5075267;28;20052;-67
2021/06/22 03:41:13;;;;;;;27.63;11.02;;;12.80;99.90;;;;;;5075677;28;20112;-67
2021/06/22 03:43:39;;;;;;;29.17;11.50;;;12.80;99.90;;;;;;5075942;28;20032;-67
2021/06/22 03:46:06;;;;;;;26.52;11.65;;;12.90;99.90;;;;;;5075294;28;20020;-67
2021/06/22 03:48:32;;;;;;;25.63;11.57;;;12.90;99.90;;;;;;5075814;28;20028;-67
2021/06/22 03:50:57;;;;;;;23.42;11.20;;;12.90;99.90;;;;;;5075787;28;20035;-67
2021/06/22 03:53:23;;;;;;;22.42;11.88;;;12.90;99.90;;;;;;5075466;28;20099;-67
2021/06/22 03:55:48;;;;;;;31.25;11.20;;;12.90;99.90;;;;;;5074177;28;20036;-67
2021/06/22 03:58:15;;;;;;;28.33;12.32;;;13.00;99.90;;;;;;5075487;28;20082;-67
2021/06/22 04:00:41;;;;;;;29.02;11.02;;;13.00;99.90;;;;;;5075610;28;20020;-67
2021/06/22 04:03:07;;;;;;;25.27;11.13;;;13.00;99.90;;;;;;5075256;28;20488;-67
2021/06/22 04:05:32;;;;;;;25.83;11.55;;;13.00;99.90;;;;;;5075170;28;20025;-67
2021/06/22 04:08:00;;;;;;;26.30;11.52;;;13.10;99.90;;;;;;5073955;28;20024;-67
2021/06/22 04:10:27;;;;;;;26.08;10.60;;;13.00;99.90;;;;;;5075350;28;20032;-67
2021/06/22 04:12:53;;;;;;;23.23;11.02;;;13.10;99.90;;;;;;5074064;28;20025;-67
2021/06/22 04:15:19;;;;;;;30.02;11.20;;;13.10;99.90;;;;;;5074984;28;20048;-67
2021/06/22 04:17:44;;;;;;;25.35;12.23;;;13.10;99.90;;;;;;5073384;28;20028;-67
2021/06/22 04:20:11;;;;;;;28.98;11.55;;;13.10;99.90;;;;;;5073338;28;20070;-67
2021/06/22 04:22:36;;;;;;;31.35;11.88;;;13.10;99.90;;;;;;5075143;28;20031;-67
2021/06/22 04:25:03;;;;;;;24.73;12.00;;;13.20;99.90;;;;;;5073647;28;20025;-67
2021/06/22 04:27:29;;;;;;;26.02;12.05;;;13.20;99.90;;;;;;5073569;28;20021;-67
2021/06/22 04:29:55;;;;;;;29.88;13.95;;;13.20;99.90;;;;;;5074993;28;20027;-67
2021/06/22 04:32:21;;;;;;;22.05;11.85;;;13.30;99.90;;;;;;5074913;28;20028;-67
2021/06/22 04:34:46;;;;;;;27.33;12.55;;;13.40;99.90;;;;;;5074877;28;20055;-67
2021/06/22 04:37:12;;;;;;;25.02;12.73;;;13.30;99.90;;;;;;5074360;28;20049;-67
2021/06/22 04:39:37;;;;;;;26.35;12.32;;;13.30;99.90;;;;;;5074738;28;20465;-67
2021/06/22 04:42:03;;;;;;;22.45;11.80;;;13.30;99.90;;;;;;5074723;28;20032;-67
2021/06/22 04:44:28;;;;;;;25.90;11.88;;;13.30;99.90;;;;;;5074358;28;20066;-67
2021/06/22 04:46:54;;;;;;;27.40;12.57;;;13.30;99.90;;;;;;5074625;28;20099;-67
2021/06/22 04:49:20;;;;;;;25.25;12.68;;;13.10;99.90;;;;;;5074609;28;20024;-67
2021/06/22 04:51:45;;;;;;;28.85;12.27;;;13.10;99.90;;;;;;5074311;28;20074;-67
2021/06/22 04:54:12;;;;;;;29.58;13.77;;;13.10;99.90;;;;;;5072720;28;20024;-67
2021/06/22 04:56:38;;;;;;;23.85;12.95;;;13.10;99.90;;;;;;5074517;28;20021;-67
2021/06/22 04:59:04;;;;;;;32.13;14.70;;;13.20;99.90;;;;;;5074439;28;20021;-67
2021/06/22 05:01:30;;;;;;;34.28;14.35;;;13.10;99.90;;;;;;5074027;28;20077;-67
2021/06/22 05:03:56;;;;;;;30.58;14.20;;;13.20;99.90;;;;;;5072645;28;20025;-67
2021/06/22 05:06:22;;;;;;;28.88;13.88;;;13.20;99.90;;;;;;5072923;28;20069;-67
2021/06/22 05:08:48;;;;;;;25.50;13.50;;;13.20;99.90;;;;;;5073622;28;20083;-67
2021/06/22 05:11:13;;;;;;;30.10;14.30;;;13.20;99.90;;;;;;5072853;28;20107;-67
2021/06/22 05:13:40;;;;;;;28.48;14.00;;;13.20;99.90;;;;;;5074241;28;20115;-67
2021/06/22 05:16:06;;;;;;;31.45;13.25;;;13.20;99.90;;;;;;5073638;28;20028;-67
2021/06/22 05:18:32;;;;;;;27.38;14.35;;;13.20;99.90;;;;;;5074134;28;20036;-67
2021/06/22 05:20:57;;;;;;;31.83;14.48;;;13.30;99.90;;;;;;5073600;28;20055;-67
2021/06/22 05:23:23;;;;;;;26.48;13.75;;;13.40;99.90;;;;;;5074127;28;20073;-67
2021/06/22 05:25:49;;;;;;;31.92;14.07;;;13.40;99.90;;;;;;5074065;28;20025;-67
2021/06/22 05:28:15;;;;;;;26.65;13.18;;;13.80;99.90;;;;;;5073588;28;20029;-67
2021/06/22 05:30:41;;;;;;;26.60;13.50;;;14.30;99.90;;;;;;5072600;28;20020;-67
2021/06/22 05:33:06;;;;;;;25.42;12.48;;;14.50;99.90;;;;;;5073996;28;20103;-67
2021/06/22 05:35:33;;;;;;;18.35;10.30;;;14.80;99.90;;;;;;5073965;28;20064;-67
2021/06/22 05:37:58;;;;;;;18.77;10.65;;;15.20;99.90;;;;;;5073138;28;20048;-68
2021/06/22 05:40:25;;;;;;;24.35;10.63;;;15.80;99.90;;;;;;5073958;28;20135;-68
2021/06/22 05:42:51;;;;;;;20.05;9.80;;;16.00;99.90;;;;;;5072928;28;20048;-66
2021/06/22 05:45:17;;;;;;;18.65;8.77;;;17.20;99.90;;;;;;5088934;28;20025;-68
2021/06/22 05:47:42;;;;;;;17.33;9.20;;;17.70;99.90;;;;;;5073613;28;20078;-68
2021/06/22 05:50:09;;;;;;;15.18;9.27;;;17.10;99.90;;;;;;5072321;28;20033;-68
2021/06/22 05:52:36;;;;;;;14.15;9.20;;;16.40;99.90;;;;;;5089212;28;20526;-68
2021/06/22 05:55:03;;;;;;;21.27;9.85;;;16.20;99.90;;;;;;5071957;28;20466;-68
2021/06/22 05:57:29;;;;;;;17.45;9.18;;;16.50;99.90;;;;;;5071898;28;20027;-68
2021/06/22 05:59:54;;;;;;;18.33;9.02;;;16.90;99.90;;;;;;5072631;28;20012;-68
2021/06/22 06:02:21;;;;;;;21.33;10.18;;;16.60;99.90;;;;;;5071438;28;20031;-68
2021/06/22 06:04:46;;;;;;;15.07;9.75;;;16.10;99.90;;;;;;5072033;28;20036;-68
2021/06/22 06:07:12;;;;;;;19.83;10.70;;;15.80;99.90;;;;;;5072483;28;20025;-69
2021/06/22 06:09:37;;;;;;;21.88;11.10;;;15.70;99.90;;;;;;5072248;28;20032;-68
2021/06/22 06:12:03;;;;;;;20.40;10.45;;;15.50;99.90;;;;;;5070947;28;20100;-68
2021/06/22 06:14:29;;;;;;;17.75;9.18;;;15.90;99.90;;;;;;5072292;28;20031;-69
2021/06/22 06:16:55;;;;;;;15.85;9.35;;;16.70;99.90;;;;;;5086490;28;20373;-67
2021/06/22 06:19:20;;;;;;;17.17;9.50;;;16.90;99.90;;;;;;5073431;28;20457;-68
2021/06/22 06:21:47;;;;;;;20.77;9.07;;;17.20;99.90;;;;;;5059364;28;20024;-68
2021/06/22 06:24:13;;;;;;;17.20;8.77;;;16.80;99.90;;;;;;5076657;28;20044;-68
2021/06/22 06:27:01;;;;;;;18.88;9.50;;;16.60;99.90;;;;;;5076830;28;20021;-68
2021/06/22 06:29:33;;;;;;;17.80;9.00;;;16.40;99.90;;;;;;5089563;28;20028;-68
2021/06/22 06:31:59;;;;;;;16.90;9.95;;;16.60;99.90;;;;;;5076158;28;20017;-68
2021/06/22 06:34:24;;;;;;;19.52;9.93;;;16.50;99.90;;;;;;5076367;28;20031;-68
2021/06/22 06:36:50;;;;;;;24.45;11.10;;;16.40;99.90;;;;;;5075062;28;20024;-68
2021/06/22 06:39:15;;;;;;;21.25;9.55;;;16.00;99.90;;;;;;5075401;28;20032;-68
2021/06/22 06:41:41;;;;;;;15.85;9.82;;;16.10;99.90;;;;;;5075053;28;20033;-68
2021/06/22 06:44:06;;;;;;;19.25;9.65;;;16.40;99.90;;;;;;5075534;28;20024;-68
2021/06/22 06:46:32;;;;;;;18.10;9.70;;;16.40;99.90;;;;;;5075696;28;20024;-68
2021/06/22 06:48:57;;;;;;;13.45;9.68;;;16.20;99.90;;;;;;5074168;28;20509;-68
2021/06/22 06:51:23;;;;;;;16.25;9.35;;;16.30;99.90;;;;;;5072537;28;20515;-68
2021/06/22 06:53:48;;;;;;;19.13;10.43;;;16.40;99.90;;;;;;5079428;28;20024;-68
2021/06/22 06:56:14;;;;;;;16.65;10.07;;;16.40;99.90;;;;;;5075681;28;20124;-68
2021/06/22 06:58:40;;;;;;;20.77;9.27;;;16.90;99.90;;;;;;5075782;28;20127;-68
2021/06/22 07:01:05;;;;;;;20.48;9.70;;;16.90;99.90;;;;;;5075805;28;20020;-68
2021/06/22 07:03:31;;;;;;;20.08;9.30;;;16.90;99.90;;;;;;5075759;28;20434;-68
2021/06/22 07:05:56;;;;;;;14.70;7.63;;;17.10;99.90;;;;;;5074468;28;20378;-68
2021/06/22 07:08:22;;;;;;;15.55;6.15;;;18.60;99.90;;;;;;5073965;28;20046;-69
2021/06/22 07:10:47;;;;;;;8.45;5.57;;;19.60;99.90;;;;;;5074779;28;20075;-69
2021/06/22 07:13:15;;;;;;;12.05;5.38;;;20.30;99.90;;;;;;5075039;28;20063;-68
2021/06/22 07:15:41;;;;;;;12.48;5.18;;;20.70;99.90;;;;;;5057665;28;20501;-69
2021/06/22 07:18:07;;;;;;;11.18;4.95;;;21.70;99.90;;;;;;5075288;28;20120;-68
2021/06/22 07:20:33;;;;;;;15.73;5.10;;;21.50;99.90;;;;;;5066296;28;20108;-68
2021/06/22 07:22:58;;;;;;;14.30;5.28;;;20.70;99.90;;;;;;5070771;28;20027;-69
2021/06/22 07:25:26;;;;;;;10.52;5.22;;;18.90;99.90;;;;;;5075254;28;20028;-69
2021/06/22 07:27:53;;;;;;;9.43;4.65;;;18.60;99.90;;;;;;5075305;28;20028;-69
2021/06/22 07:30:20;;;;;;;10.90;5.60;;;17.90;99.90;;;;;;5074968;28;20024;-69
2021/06/22 07:32:45;;;;;;;15.20;6.07;;;17.50;99.90;;;;;;5074908;28;20028;-68
2021/06/22 07:35:11;;;;;;;11.18;5.50;;;17.30;99.90;;;;;;5075233;28;20110;-68
2021/06/22 07:37:37;;;;;;;10.05;6.03;;;17.20;99.90;;;;;;5074319;28;20083;-69
2021/06/22 07:40:03;;;;;;;16.90;6.95;;;17.00;99.90;;;;;;5074873;28;20017;-69
2021/06/22 07:42:29;;;;;;;14.57;6.20;;;16.60;99.90;;;;;;5075037;28;20070;-68
2021/06/22 07:44:54;;;;;;;14.27;6.10;;;16.70;99.90;;;;;;5075167;28;20017;-68
2021/06/22 07:47:20;;;;;;;12.20;5.70;;;16.70;99.90;;;;;;5074755;28;20028;-69
2021/06/22 07:49:46;;;;;;;15.73;5.35;;;16.80;99.90;;;;;;5056359;28;20443;-68
2021/06/22 07:52:11;;;;;;;9.70;5.00;;;16.70;99.90;;;;;;5074028;28;20363;-68
2021/06/22 07:54:37;;;;;;;9.82;5.15;;;16.70;99.90;;;;;;5074321;28;20539;-68
2021/06/22 07:57:03;;;;;;;15.93;5.55;;;16.90;99.90;;;;;;5074355;28;20032;-69
2021/06/22 07:59:28;;;;;;;11.40;5.80;;;17.00;99.90;;;;;;5068707;28;20033;-68
2021/06/22 08:01:55;;;;;;;16.40;6.25;;;17.10;99.90;;;;;;5074437;28;20025;-68
2021/06/22 08:04:20;;;;;;;9.55;4.85;;;17.00;99.90;;;;;;5074632;28;20016;-68
2021/06/22 08:06:47;;;;;;;13.70;5.28;;;17.10;99.90;;;;;;5074067;28;20024;-68
2021/06/22 08:09:13;;;;;;;9.15;4.80;;;16.90;99.90;;;;;;5074133;28;20642;-68
2021/06/22 08:11:38;;;;;;;13.75;5.90;;;16.90;99.90;;;;;;5074097;28;20028;-68
2021/06/22 08:14:04;;;;;;;14.43;5.70;;;17.00;99.90;;;;;;5074880;28;20025;-68
2021/06/22 08:16:29;;;;;;;10.88;5.50;;;17.20;99.90;;;;;;5072656;28;20484;-68
2021/06/22 08:18:55;;;;;;;11.55;6.03;;;17.20;99.90;;;;;;5074638;28;20039;-68
2021/06/22 08:21:21;;;;;;;14.30;6.13;;;17.00;99.90;;;;;;5074056;28;20024;-68
2021/06/22 08:23:46;;;;;;;11.23;6.32;;;16.60;99.90;;;;;;5073167;28;20100;-68
2021/06/22 08:26:12;;;;;;;11.18;6.55;;;16.60;99.90;;;;;;5073018;28;20385;-68
2021/06/22 08:28:37;;;;;;;18.52;6.93;;;16.70;99.90;;;;;;5074111;28;20052;-68
2021/06/22 08:31:03;;;;;;;14.05;6.22;;;16.70;99.90;;;;;;5072659;28;20024;-68
2021/06/22 08:33:29;;;;;;;9.90;5.28;;;16.70;99.90;;;;;;5074125;28;20386;-68
2021/06/22 08:35:54;;;;;;;14.52;5.55;;;16.70;99.90;;;;;;5073983;28;20364;-68
2021/06/22 08:38:20;;;;;;;12.02;5.32;;;16.50;99.90;;;;;;5073882;28;20486;-68
2021/06/22 08:40:46;;;;;;;17.92;6.63;;;16.50;99.90;;;;;;5072984;28;20016;-68
2021/06/22 08:43:14;;;;;;;14.93;6.15;;;16.40;99.90;;;;;;5073383;28;20020;-67
2021/06/22 08:45:41;;;;;;;14.32;6.85;;;16.50;99.90;;;;;;5065622;28;20029;-68
2021/06/22 08:48:09;;;;;;;17.30;6.30;;;16.30;99.90;;;;;;5073747;28;20393;-68
2021/06/22 08:50:36;;;;;;;11.35;6.13;;;16.30;99.90;;;;;;5073526;28;20024;-68
2021/06/22 08:53:02;;;;;;;14.20;6.47;;;16.50;99.90;;;;;;5073411;28;20123;-68
2021/06/22 08:55:30;;;;;;;12.13;5.88;;;16.50;99.90;;;;;;5072990;28;20028;-68
2021/06/22 08:58:03;;;;;;;11.68;6.03;;;16.60;99.90;;;;;;5073167;28;20024;-68
2021/06/22 09:00:31;;;;;;;13.90;5.80;;;17.00;99.90;;;;;;5073779;28;20072;-68
2021/06/22 09:02:58;;;;;;;14.43;4.75;;;17.30;99.90;;;;;;5073867;28;20017;-68
2021/06/22 09:05:25;;;;;;;12.07;4.35;;;17.30;99.90;;;;;;5073141;28;20025;-68
2021/06/22 09:07:53;;;;;;;13.27;4.38;;;19.10;99.90;;;;;;5073419;28;20137;-68
2021/06/22 09:10:22;;;;;;;9.27;4.45;;;20.70;99.90;;;;;;5073355;28;20451;-68
2021/06/22 09:12:48;;;;;;;6.55;3.78;;;20.60;99.90;;;;;;5073462;28;20021;-68
2021/06/22 09:15:19;;;;;;;7.07;3.80;;;20.00;99.90;;;;;;5071950;28;20409;-68
2021/06/22 09:17:46;;;;;;;8.35;4.32;;;19.50;99.90;;;;;;5073873;28;20025;-68
2021/06/22 09:20:14;;;;;;;12.60;4.75;;;18.70;99.90;;;;;;5073075;28;20032;-68
2021/06/22 09:22:39;;;;;;;11.90;4.80;;;18.20;99.90;;;;;;5073478;28;20028;-68
2021/06/22 09:25:09;;;;;;;13.73;5.13;;;17.90;99.90;;;;;;5073658;28;20021;-68
2021/06/22 09:27:55;;;;;;;13.80;4.93;;;17.50;99.90;;;;;;5071949;28;20032;-68
2021/06/22 09:31:00;;;;;;;13.55;4.70;;;17.40;99.90;;;;;;5072654;28;20036;-67
2021/06/22 09:33:30;;;;;;;8.25;4.78;;;17.00;99.90;;;;;;5062928;28;20028;-67
2021/06/22 09:38:38;;;;;;;9.02;4.63;;;16.60;99.90;;;;;;5126935;27;20140;-68
2021/06/22 09:41:07;;;;;;;11.20;4.70;;;16.40;99.90;;;;;;5110125;28;20024;-68
2021/06/22 09:43:39;;;;;;;13.73;5.60;;;16.50;99.90;;;;;;5110329;28;20016;-68
2021/06/22 09:46:06;;;;;;;13.65;4.97;;;16.60;99.90;;;;;;5109515;28;20065;-67
2021/06/22 09:48:41;;;;;;;13.27;5.70;;;16.60;99.90;;;;;;5110618;28;20024;-67
2021/06/22 09:51:07;;;;;;;13.85;5.32;;;16.90;99.90;;;;;;5110675;28;20096;-68
2021/06/22 09:53:33;;;;;;;13.05;5.53;;;17.00;99.90;;;;;;5109214;28;20032;-66
2021/06/22 09:56:00;;;;;;;9.00;4.75;;;16.90;99.90;;;;;;5109012;28;20052;-68
2021/06/22 09:58:43;;;;;;;13.15;5.05;;;17.00;99.90;;;;;;5109665;28;20114;-66
2021/06/22 10:01:29;;;;;;;14.52;4.72;;;17.10;99.90;;;;;;5109447;28;20045;-67
2021/06/22 10:04:11;;;;;;;8.63;4.30;;;17.10;99.90;;;;;;5109163;28;20030;-66
2021/06/22 10:06:37;;;;;;;13.10;4.82;;;17.10;99.90;;;;;;5108089;28;20091;-66
2021/06/22 10:09:03;;;;;;;10.73;5.18;;;17.30;99.90;;;;;;5110439;28;20027;-66
2021/06/22 10:11:34;;;;;;;14.30;4.80;;;17.80;99.90;;;;;;5109563;28;20430;-66
2021/06/22 10:14:02;;;;;;;14.75;5.22;;;18.10;99.90;;;;;;5109957;28;20020;-66
2021/06/22 10:16:31;;;;;;;7.80;4.45;;;18.60;99.90;;;;;;5109900;28;20024;-68
2021/06/22 10:18:57;;;;;;;11.43;5.40;;;19.10;99.90;;;;;;5109074;28;20081;-66
2021/06/22 10:21:23;;;;;;;12.75;5.90;;;19.20;99.90;;;;;;5109194;28;20427;-67
2021/06/22 10:23:51;;;;;;;11.05;5.50;;;18.70;99.90;;;;;;5110306;28;20023;-65
2021/06/22 10:26:19;;;;;;;7.95;5.00;;;18.60;99.90;;;;;;5102693;28;20095;-65
2021/06/22 10:28:46;;;;;;;10.52;5.07;;;18.80;99.90;;;;;;5108968;28;20019;-65
2021/06/22 10:31:11;;;;;;;8.80;5.22;;;18.40;99.90;;;;;;5108264;28;20027;-65
2021/06/22 10:33:37;;;;;;;13.30;6.20;;;18.30;99.90;;;;;;5109552;28;20020;-66
2021/06/22 10:36:03;;;;;;;14.23;5.65;;;18.00;99.90;;;;;;5107880;28;20028;-66
2021/06/22 10:38:39;;;;;;;11.70;5.05;;;18.20;99.90;;;;;;5108346;28;20349;-66
2021/06/22 10:41:06;;;;;;;10.55;5.88;;;18.30;99.90;;;;;;5108627;28;20046;-66
2021/06/22 10:43:39;;;;;;;13.55;6.43;;;18.30;99.90;;;;;;5099770;28;20098;-66
2021/06/22 10:46:13;;;;;;;12.03;5.90;;;18.30;99.90;;;;;;5108797;28;20031;-66
2021/06/22 10:48:47;;;;;;;12.88;5.82;;;18.40;99.90;;;;;;5101914;28;20043;-67
2021/06/22 10:51:42;;;;;;;8.13;4.90;;;18.70;99.90;;;;;;5091099;28;20470;-67
2021/06/22 10:54:48;;;;;;;10.45;4.80;;;18.90;99.90;;;;;;5082116;28;20097;-68
2021/06/22 10:57:13;;;;;;;9.63;4.90;;;18.80;99.90;;;;;;5101099;28;20120;-68
2021/06/22 10:59:59;;;;;;;11.60;4.47;;;19.20;99.90;;;;;;5095022;28;20497;-67
2021/06/22 11:03:04;;;;;;;7.05;4.55;;;19.20;99.90;;;;;;5094215;28;20533;-68
2021/06/22 11:05:34;;;;;;;10.30;5.03;;;19.30;99.90;;;;;;5095141;28;20050;-68
2021/06/22 11:08:32;;;;;;;8.13;4.80;;;19.10;99.90;;;;;;5095093;28;20076;-67
2021/06/22 11:13:57;;;;;;;8.93;5.13;;;18.80;99.90;;;;;;5125944;27;20428;-68
2021/06/22 11:16:27;;;;;;;10.40;5.45;;;18.60;99.90;;;;;;5109703;28;20030;-68
2021/06/22 11:21:32;;;;;;;9.98;4.90;;;18.60;99.90;;;;;;5143627;27;20225;-68
2021/06/22 11:24:17;;;;;;;10.45;5.10;;;18.00;99.90;;;;;;5095730;28;20035;-68
2021/06/22 11:29:22;;;;;;;11.57;5.40;;;18.00;99.90;;;;;;5121584;27;20129;-68
2021/06/22 11:34:29;;;;;;;8.70;5.63;;;17.80;99.90;;;;;;5126135;27;20186;-68
2021/06/22 11:36:56;;;;;;;9.75;6.03;;;18.00;99.90;;;;;;5109004;28;20492;-68
2021/06/22 11:39:43;;;;;;;11.27;5.32;;;18.10;99.90;;;;;;5109693;28;20031;-68
2021/06/22 11:44:51;;;;;;;10.63;5.18;;;18.10;99.90;;;;;;5104624;27;20468;-68
2021/06/22 11:50:23;;;;;;;9.80;4.90;;;18.10;99.90;;;;;;5122986;27;20178;-68
2021/06/22 11:52:58;;;;;;;11.10;5.03;;;18.10;99.90;;;;;;5109464;28;20401;-68
2021/06/22 11:55:23;;;;;;;13.77;5.07;;;18.30;99.90;;;;;;5110964;28;20455;-68
2021/06/22 11:57:51;;;;;;;8.35;4.30;;;18.40;99.90;;;;;;5110573;28;20107;-68
2021/06/22 12:00:20;;;;;;;9.35;4.68;;;18.40;99.90;;;;;;5109672;28;20051;-68
2021/06/22 12:02:51;;;;;;;6.70;4.13;;;18.60;99.90;;;;;;5108874;28;20019;-68
2021/06/22 12:05:19;;;;;;;9.43;4.57;;;19.00;99.90;;;;;;5109329;28;20024;-68
2021/06/22 12:08:06;;;;;;;9.95;4.68;;;19.10;99.90;;;;;;5110222;28;20024;-68
2021/06/22 12:10:49;;;;;;;8.80;4.95;;;19.60;99.90;;;;;;5109129;28;20178;-68
2021/06/22 12:13:34;;;;;;;;;;;19.60;99.90;;;;;;5109880;28;20390;-68
2021/06/22 12:16:23;;;;;;;8.15;4.80;;;18.80;99.90;;;;;;5103817;28;19908;-68
2021/06/22 12:18:50;;;;;;;8.68;4.88;;;18.30;99.90;;;;;;5108565;28;20099;-67
2021/06/22 12:21:16;;;;;;;13.27;6.03;;;18.30;99.90;;;;;;5086236;28;20038;-68
2021/06/22 12:23:42;;;;;;;11.32;5.78;;;18.50;99.90;;;;;;5104919;28;20020;-68
2021/06/22 12:26:09;;;;;;;13.07;5.35;;;18.40;99.90;;;;;;5109289;28;20027;-68
2021/06/22 12:28:37;;;;;;;14.52;4.50;;;18.40;99.90;;;;;;5104659;28;20020;-67
2021/06/22 12:31:04;;;;;;;11.18;4.32;;;18.60;99.90;;;;;;5103882;28;20020;-68
2021/06/22 12:33:36;;;;;;;8.48;4.68;;;18.60;99.90;;;;;;5109855;28;20011;-68
2021/06/22 12:36:05;;;;;;;11.32;4.80;;;18.90;99.90;;;;;;5110185;28;20027;-68
2021/06/22 12:38:31;;;;;;;13.13;5.13;;;19.00;99.90;;;;;;5097801;28;20016;-66
2021/06/22 12:41:00;;;;;;;12.27;4.63;;;19.00;99.90;;;;;;5109883;28;20031;-68
2021/06/22 12:43:48;;;;;;;10.68;4.18;;;19.10;99.90;;;;;;5109798;28;20439;-68
2021/06/22 12:46:18;;;;;;;7.53;3.65;;;19.30;99.90;;;;;;5108759;28;20109;-69
2021/06/22 12:48:44;;;;;;;9.60;3.80;;;19.40;99.90;;;;;;5106553;28;20048;-67
2021/06/22 12:51:12;;;;;;;9.15;4.13;;;19.30;99.90;;;;;;5106556;28;20008;-66
2021/06/22 12:53:38;;;;;;;11.40;4.10;;;19.20;99.90;;;;;;5108198;28;20016;-66
2021/06/22 12:56:07;;;;;;;10.85;4.45;;;19.00;99.90;;;;;;5108627;28;20016;-66
2021/06/22 12:59:09;;;;;;;8.88;4.57;;;18.70;99.90;;;;;;5105378;28;20091;-67